KAC615 OEDF-OMDB
Flight info
| Callsign | KAC615 |
|---|---|
| Flight time | 1h 1m |
| Altitude | 25000 |
| Route | LADNA N318 BOSEV DCT EGROP DCT IMGIL DCT ULADO DCT ULDOT DCT SEDPO |
| Aircraft | A20N/M-SDE2E3FGHIRWXY/LB1 |
Departure
| Time | 2026-04-15 20:32 |
|---|---|
| Airport | King Fahd International Airport (OEDF) |
Arrival
| Time | 2026-04-15 21:33 |
|---|---|
| Airport | Dubai International Airport (OMDB) |
| Time | Latitude | Longitude | Altitude | Speed | Heading |
|---|---|---|---|---|---|
| 2026-04-15 20:09 | 26.46345 | 49.79614 | 105 ft | 0 kts | 88° |
| 2026-04-15 20:23 | 26.46345 | 49.79610 | 78 ft | 1 kts | 88° |
| 2026-04-15 20:23 | 26.46344 | 49.79601 | 67 ft | 1 kts | 88° |
| 2026-04-15 20:23 | 26.46344 | 49.79593 | 78 ft | 1 kts | 88° |
| 2026-04-15 20:24 | 26.46344 | 49.79584 | 67 ft | 1 kts | 88° |
| 2026-04-15 20:24 | 26.46343 | 49.79558 | 74 ft | 2 kts | 93° |
| 2026-04-15 20:24 | 26.46345 | 49.79540 | 73 ft | 2 kts | 109° |
| 2026-04-15 20:25 | 26.46351 | 49.79524 | 68 ft | 2 kts | 127° |
| 2026-04-15 20:25 | 26.46363 | 49.79513 | 67 ft | 2 kts | 159° |
| 2026-04-15 20:25 | 26.46375 | 49.79509 | 69 ft | 0 kts | 175° |
| 2026-04-15 20:28 | 26.46362 | 49.79510 | 67 ft | 4 kts | 175° |
| 2026-04-15 20:28 | 26.46314 | 49.79515 | 76 ft | 9 kts | 176° |
| 2026-04-15 20:29 | 26.46236 | 49.79517 | 72 ft | 13 kts | 178° |
| 2026-04-15 20:29 | 26.46133 | 49.79531 | 76 ft | 17 kts | 167° |
| 2026-04-15 20:29 | 26.46009 | 49.79566 | 76 ft | 19 kts | 178° |
| 2026-04-15 20:29 | 26.45928 | 49.79472 | 71 ft | 19 kts | 250° |
| 2026-04-15 20:30 | 26.45837 | 49.79398 | 74 ft | 18 kts | 173° |
| 2026-04-15 20:30 | 26.45702 | 49.79437 | 74 ft | 21 kts | 164° |
| 2026-04-15 20:30 | 26.45549 | 49.79484 | 81 ft | 24 kts | 165° |
| 2026-04-15 20:30 | 26.45443 | 49.79403 | 83 ft | 20 kts | 259° |
| 2026-04-15 20:31 | 26.45438 | 49.79241 | 75 ft | 22 kts | 289° |
| 2026-04-15 20:31 | 26.45566 | 49.79154 | 77 ft | 24 kts | 345° |
| 2026-04-15 20:31 | 26.45928 | 49.79042 | 73 ft | 96 kts | 345° |
| 2026-04-15 20:31 | 26.46805 | 49.78765 | 73 ft | 165 kts | 343° |
| 2026-04-15 20:32 | 26.47950 | 49.78412 | 762 ft | 170 kts | 343° |
| 2026-04-15 20:32 | 26.49104 | 49.78088 | 1679 ft | 174 kts | 347° |
| 2026-04-15 20:32 | 26.50358 | 49.77763 | 2437 ft | 198 kts | 347° |
| 2026-04-15 20:32 | 26.51773 | 49.77349 | 3197 ft | 223 kts | 344° |
| 2026-04-15 20:33 | 26.53326 | 49.76840 | 4014 ft | 240 kts | 343° |
| 2026-04-15 20:33 | 26.56678 | 49.75730 | 6053 ft | 252 kts | 343° |
| 2026-04-15 20:33 | 26.58413 | 49.75330 | 6975 ft | 259 kts | 359° |
| 2026-04-15 20:34 | 26.60183 | 49.75808 | 7881 ft | 270 kts | 25° |
| 2026-04-15 20:34 | 26.61616 | 49.77181 | 8780 ft | 284 kts | 51° |
| 2026-04-15 20:34 | 26.62419 | 49.79228 | 9639 ft | 297 kts | 76° |
| 2026-04-15 20:34 | 26.62389 | 49.81574 | 10346 ft | 314 kts | 100° |
| 2026-04-15 20:35 | 26.61543 | 49.83921 | 10649 ft | 340 kts | 117° |
| 2026-04-15 20:35 | 26.60472 | 49.86372 | 11000 ft | 359 kts | 108° |
| 2026-04-15 20:35 | 26.59894 | 49.89093 | 11793 ft | 361 kts | 95° |
| 2026-04-15 20:35 | 26.59815 | 49.91904 | 12636 ft | 363 kts | 85° |
| 2026-04-15 20:36 | 26.60062 | 49.94730 | 13445 ft | 368 kts | 80° |
| 2026-04-15 20:36 | 26.60477 | 49.97575 | 14191 ft | 373 kts | 77° |
| 2026-04-15 20:36 | 26.60958 | 50.00439 | 14948 ft | 376 kts | 77° |
| 2026-04-15 20:36 | 26.61449 | 50.03295 | 15658 ft | 381 kts | 77° |
| 2026-04-15 20:37 | 26.61948 | 50.06221 | 16387 ft | 385 kts | 77° |
| 2026-04-15 20:37 | 26.62442 | 50.09177 | 17116 ft | 389 kts | 78° |
| 2026-04-15 20:37 | 26.62906 | 50.12181 | 17779 ft | 395 kts | 83° |
| 2026-04-15 20:37 | 26.62762 | 50.15240 | 18629 ft | 395 kts | 101° |
| 2026-04-15 20:38 | 26.61843 | 50.18149 | 19180 ft | 402 kts | 118° |
| 2026-04-15 20:38 | 26.60219 | 50.20723 | 19657 ft | 411 kts | 130° |
| 2026-04-15 20:38 | 26.58293 | 50.23135 | 20105 ft | 418 kts | 133° |
| 2026-04-15 20:38 | 26.56310 | 50.25512 | 20807 ft | 419 kts | 133° |
| 2026-04-15 20:39 | 26.54342 | 50.27897 | 21582 ft | 419 kts | 133° |
| 2026-04-15 20:39 | 26.52363 | 50.30340 | 21988 ft | 428 kts | 132° |
| 2026-04-15 20:39 | 26.50375 | 50.32830 | 22603 ft | 432 kts | 132° |
| 2026-04-15 20:39 | 26.48432 | 50.35345 | 23212 ft | 435 kts | 127° |
| 2026-04-15 20:40 | 26.46835 | 50.38221 | 23787 ft | 438 kts | 115° |
| 2026-04-15 20:40 | 26.45769 | 50.41406 | 24311 ft | 440 kts | 104° |
| 2026-04-15 20:40 | 26.45149 | 50.44778 | 24721 ft | 446 kts | 99° |
| 2026-04-15 20:40 | 26.44568 | 50.48189 | 25202 ft | 449 kts | 99° |
| 2026-04-15 20:41 | 26.43977 | 50.51628 | 25664 ft | 453 kts | 100° |
| 2026-04-15 20:41 | 26.43378 | 50.55097 | 26112 ft | 457 kts | 100° |
| 2026-04-15 20:41 | 26.42771 | 50.58592 | 26547 ft | 461 kts | 100° |
| 2026-04-15 20:41 | 26.42157 | 50.62118 | 26975 ft | 465 kts | 100° |
| 2026-04-15 20:42 | 26.41538 | 50.65667 | 27408 ft | 468 kts | 100° |
| 2026-04-15 20:42 | 26.40911 | 50.69244 | 27849 ft | 471 kts | 100° |
| 2026-04-15 20:42 | 26.40281 | 50.72840 | 28233 ft | 475 kts | 100° |
| 2026-04-15 20:42 | 26.39644 | 50.76467 | 28618 ft | 478 kts | 101° |
| 2026-04-15 20:43 | 26.39000 | 50.80123 | 28990 ft | 481 kts | 101° |
| 2026-04-15 20:43 | 26.38352 | 50.83797 | 29372 ft | 484 kts | 100° |
| 2026-04-15 20:43 | 26.37708 | 50.87445 | 29745 ft | 487 kts | 101° |
| 2026-04-15 20:43 | 26.37052 | 50.91155 | 30096 ft | 489 kts | 100° |
| 2026-04-15 20:44 | 26.36389 | 50.94898 | 30442 ft | 491 kts | 100° |
| 2026-04-15 20:44 | 26.35723 | 50.98649 | 30797 ft | 493 kts | 100° |
| 2026-04-15 20:44 | 26.35055 | 51.02408 | 31162 ft | 494 kts | 100° |
| 2026-04-15 20:44 | 26.34386 | 51.06167 | 31607 ft | 494 kts | 100° |
| 2026-04-15 20:45 | 26.33717 | 51.09915 | 32078 ft | 492 kts | 100° |
| 2026-04-15 20:45 | 26.33049 | 51.13656 | 32540 ft | 490 kts | 100° |
| 2026-04-15 20:45 | 26.32379 | 51.17404 | 32713 ft | 496 kts | 100° |
| 2026-04-15 20:45 | 26.31709 | 51.21151 | 32817 ft | 502 kts | 100° |
| 2026-04-15 20:46 | 26.31020 | 51.24993 | 32914 ft | 507 kts | 100° |
| 2026-04-15 20:46 | 26.29621 | 51.32776 | 32916 ft | 516 kts | 100° |
| 2026-04-15 20:47 | 26.28195 | 51.40668 | 32916 ft | 521 kts | 99° |
| 2026-04-15 20:47 | 26.26758 | 51.48609 | 32914 ft | 524 kts | 99° |
| 2026-04-15 20:48 | 26.25311 | 51.56572 | 32912 ft | 525 kts | 100° |
| 2026-04-15 20:48 | 26.23864 | 51.64505 | 32911 ft | 526 kts | 99° |
| 2026-04-15 20:49 | 26.22412 | 51.72445 | 32907 ft | 510 kts | 99° |
| 2026-04-15 20:49 | 26.21715 | 51.76234 | 32907 ft | 489 kts | 99° |
| 2026-04-15 20:49 | 26.21042 | 51.79890 | 32903 ft | 476 kts | 99° |
| 2026-04-15 20:50 | 26.19697 | 51.87219 | 32903 ft | 487 kts | 99° |
| 2026-04-15 20:50 | 26.18337 | 51.94594 | 32901 ft | 485 kts | 99° |
| 2026-04-15 20:51 | 26.16984 | 52.01911 | 32899 ft | 486 kts | 99° |
| 2026-04-15 20:51 | 26.15616 | 52.09276 | 32897 ft | 485 kts | 99° |
| 2026-04-15 20:52 | 26.14248 | 52.16625 | 32893 ft | 485 kts | 99° |
| 2026-04-15 20:52 | 26.12875 | 52.23982 | 32893 ft | 485 kts | 99° |
| 2026-04-15 20:53 | 26.11496 | 52.31342 | 32887 ft | 485 kts | 99° |
| 2026-04-15 20:53 | 26.10118 | 52.38682 | 32886 ft | 485 kts | 99° |
| 2026-04-15 20:54 | 26.08743 | 52.45983 | 32888 ft | 485 kts | 99° |
| 2026-04-15 20:54 | 26.07358 | 52.53322 | 32892 ft | 485 kts | 99° |
| 2026-04-15 20:55 | 26.05968 | 52.60659 | 32874 ft | 485 kts | 99° |
| 2026-04-15 20:55 | 26.04572 | 52.68004 | 32870 ft | 485 kts | 99° |
| 2026-04-15 20:56 | 26.03175 | 52.75333 | 32871 ft | 485 kts | 99° |
| 2026-04-15 20:56 | 26.02014 | 52.81429 | 32857 ft | 485 kts | 100° |
| 2026-04-15 20:57 | 26.00609 | 52.88765 | 32853 ft | 485 kts | 100° |
| 2026-04-15 20:57 | 25.99198 | 52.96109 | 32858 ft | 486 kts | 100° |
| 2026-04-15 20:58 | 25.97783 | 53.03464 | 32856 ft | 487 kts | 101° |
| 2026-04-15 20:58 | 25.96132 | 53.12021 | 32854 ft | 487 kts | 101° |
| 2026-04-15 20:59 | 25.94945 | 53.18142 | 32857 ft | 488 kts | 101° |
| 2026-04-15 20:59 | 25.93509 | 53.25530 | 32863 ft | 489 kts | 101° |
| 2026-04-15 21:00 | 25.92075 | 53.32912 | 32857 ft | 489 kts | 102° |
| 2026-04-15 21:00 | 25.90629 | 53.40305 | 32867 ft | 490 kts | 102° |
| 2026-04-15 21:01 | 25.89189 | 53.47653 | 32866 ft | 490 kts | 102° |
| 2026-04-15 21:01 | 25.87735 | 53.55053 | 32864 ft | 490 kts | 102° |
| 2026-04-15 21:02 | 25.86278 | 53.62443 | 32867 ft | 490 kts | 102° |
| 2026-04-15 21:02 | 25.84483 | 53.69732 | 32863 ft | 489 kts | 115° |
| 2026-04-15 21:02 | 25.82813 | 53.73011 | 32860 ft | 487 kts | 127° |
| 2026-04-15 21:03 | 25.80616 | 53.75839 | 32849 ft | 477 kts | 140° |
| 2026-04-15 21:03 | 25.78069 | 53.78031 | 32855 ft | 466 kts | 152° |
| 2026-04-15 21:03 | 25.75167 | 53.79611 | 32855 ft | 465 kts | 162° |
| 2026-04-15 21:04 | 25.69095 | 53.82069 | 32858 ft | 464 kts | 163° |
| 2026-04-15 21:04 | 25.63024 | 53.84503 | 32865 ft | 464 kts | 163° |
| 2026-04-15 21:05 | 25.57056 | 53.87223 | 32865 ft | 467 kts | 152° |
| 2026-04-15 21:05 | 25.54440 | 53.89377 | 32866 ft | 472 kts | 139° |
| 2026-04-15 21:05 | 25.52253 | 53.92107 | 32864 ft | 477 kts | 127° |
| 2026-04-15 21:05 | 25.50596 | 53.95299 | 32867 ft | 481 kts | 115° |
| 2026-04-15 21:06 | 25.49514 | 53.98812 | 32869 ft | 484 kts | 106° |
| 2026-04-15 21:06 | 25.47867 | 54.06031 | 32868 ft | 483 kts | 107° |
| 2026-04-15 21:07 | 25.45950 | 54.13077 | 32868 ft | 481 kts | 110° |
| 2026-04-15 21:07 | 25.43844 | 54.20102 | 32865 ft | 480 kts | 110° |
| 2026-04-15 21:08 | 25.41717 | 54.27078 | 32870 ft | 478 kts | 111° |
| 2026-04-15 21:08 | 25.39591 | 54.34049 | 32867 ft | 478 kts | 111° |
| 2026-04-15 21:09 | 25.37462 | 54.41022 | 32870 ft | 478 kts | 111° |
| 2026-04-15 21:09 | 25.35333 | 54.47990 | 32868 ft | 478 kts | 111° |
| 2026-04-15 21:10 | 25.33200 | 54.54954 | 32870 ft | 478 kts | 111° |
| 2026-04-15 21:10 | 25.31067 | 54.61906 | 32771 ft | 475 kts | 111° |
| 2026-04-15 21:10 | 25.30022 | 54.65310 | 32323 ft | 472 kts | 111° |
| 2026-04-15 21:11 | 25.28965 | 54.68745 | 31600 ft | 473 kts | 111° |
| 2026-04-15 21:11 | 25.27902 | 54.72195 | 30763 ft | 475 kts | 111° |
| 2026-04-15 21:11 | 25.26836 | 54.75656 | 29978 ft | 476 kts | 111° |
| 2026-04-15 21:11 | 25.25773 | 54.79103 | 29303 ft | 472 kts | 111° |
| 2026-04-15 21:12 | 25.24721 | 54.82514 | 28622 ft | 467 kts | 111° |
| 2026-04-15 21:12 | 25.23676 | 54.85896 | 27989 ft | 462 kts | 111° |
| 2026-04-15 21:12 | 25.22640 | 54.89245 | 27317 ft | 459 kts | 110° |
| 2026-04-15 21:12 | 25.21609 | 54.92574 | 26634 ft | 457 kts | 110° |
| 2026-04-15 21:13 | 25.20587 | 54.95869 | 26077 ft | 452 kts | 110° |
| 2026-04-15 21:13 | 25.19573 | 54.99138 | 25435 ft | 449 kts | 110° |
| 2026-04-15 21:13 | 25.18565 | 55.02384 | 24874 ft | 445 kts | 110° |
| 2026-04-15 21:13 | 25.17567 | 55.05596 | 24335 ft | 440 kts | 110° |
| 2026-04-15 21:14 | 25.16576 | 55.08786 | 23771 ft | 437 kts | 110° |
| 2026-04-15 21:14 | 25.15593 | 55.11947 | 23159 ft | 434 kts | 111° |
| 2026-04-15 21:14 | 25.14631 | 55.15035 | 22538 ft | 430 kts | 111° |
| 2026-04-15 21:14 | 25.13662 | 55.18147 | 21922 ft | 426 kts | 111° |
| 2026-04-15 21:15 | 25.12700 | 55.21230 | 21312 ft | 423 kts | 111° |
| 2026-04-15 21:15 | 25.11748 | 55.24281 | 20732 ft | 419 kts | 111° |
| 2026-04-15 21:15 | 25.10800 | 55.27315 | 20145 ft | 416 kts | 111° |
| 2026-04-15 21:15 | 25.09862 | 55.30316 | 19610 ft | 412 kts | 112° |
| 2026-04-15 21:16 | 25.08930 | 55.33295 | 19027 ft | 409 kts | 112° |
| 2026-04-15 21:16 | 25.08003 | 55.36252 | 18460 ft | 407 kts | 112° |
| 2026-04-15 21:16 | 25.07130 | 55.39216 | 17874 ft | 405 kts | 109° |
| 2026-04-15 21:16 | 25.06402 | 55.42198 | 17351 ft | 401 kts | 107° |
| 2026-04-15 21:17 | 25.05719 | 55.45161 | 16818 ft | 396 kts | 107° |
| 2026-04-15 21:17 | 25.05038 | 55.48089 | 16295 ft | 392 kts | 107° |
| 2026-04-15 21:17 | 25.04351 | 55.50978 | 15782 ft | 387 kts | 107° |
| 2026-04-15 21:17 | 25.03661 | 55.53831 | 15310 ft | 382 kts | 107° |
| 2026-04-15 21:18 | 25.02991 | 55.56586 | 15080 ft | 362 kts | 108° |
| 2026-04-15 21:18 | 25.02353 | 55.59195 | 14905 ft | 343 kts | 108° |
| 2026-04-15 21:18 | 25.01752 | 55.61641 | 14618 ft | 329 kts | 108° |
| 2026-04-15 21:18 | 25.01151 | 55.64063 | 14033 ft | 327 kts | 109° |
| 2026-04-15 21:19 | 25.00330 | 55.66416 | 13145 ft | 331 kts | 120° |
| 2026-04-15 21:19 | 24.99155 | 55.68608 | 12218 ft | 334 kts | 125° |
| 2026-04-15 21:19 | 24.97910 | 55.70792 | 11315 ft | 339 kts | 124° |
| 2026-04-15 21:19 | 24.96658 | 55.73012 | 10431 ft | 342 kts | 124° |
| 2026-04-15 21:20 | 24.95699 | 55.75413 | 9544 ft | 346 kts | 104° |
| 2026-04-15 21:20 | 24.95499 | 55.78057 | 8778 ft | 344 kts | 94° |
| 2026-04-15 21:20 | 24.95526 | 55.80558 | 8663 ft | 320 kts | 79° |
| 2026-04-15 21:20 | 24.96298 | 55.82747 | 8553 ft | 298 kts | 56° |
| 2026-04-15 21:21 | 24.97638 | 55.84401 | 8206 ft | 285 kts | 36° |
| 2026-04-15 21:21 | 24.99325 | 55.85469 | 7724 ft | 277 kts | 17° |
| 2026-04-15 21:21 | 25.01177 | 55.85911 | 7249 ft | 270 kts | 359° |
| 2026-04-15 21:21 | 25.03019 | 55.85737 | 6778 ft | 262 kts | 342° |
| 2026-04-15 21:22 | 25.04683 | 55.85003 | 6313 ft | 255 kts | 326° |
| 2026-04-15 21:22 | 25.06051 | 55.83811 | 5817 ft | 248 kts | 310° |
| 2026-04-15 21:22 | 25.07033 | 55.82308 | 5337 ft | 242 kts | 294° |
| 2026-04-15 21:22 | 25.07578 | 55.80634 | 5176 ft | 222 kts | 280° |
| 2026-04-15 21:23 | 25.07723 | 55.79012 | 5058 ft | 205 kts | 268° |
| 2026-04-15 21:23 | 25.07578 | 55.77483 | 4779 ft | 198 kts | 262° |
| 2026-04-15 21:23 | 25.07398 | 55.75960 | 4261 ft | 204 kts | 263° |
| 2026-04-15 21:23 | 25.07217 | 55.74380 | 3678 ft | 211 kts | 263° |
| 2026-04-15 21:24 | 25.07035 | 55.72766 | 3302 ft | 208 kts | 263° |
| 2026-04-15 21:24 | 25.06914 | 55.71220 | 3193 ft | 198 kts | 272° |
| 2026-04-15 21:24 | 25.07161 | 55.69762 | 3089 ft | 194 kts | 288° |
| 2026-04-15 21:24 | 25.07720 | 55.68389 | 2997 ft | 197 kts | 296° |
| 2026-04-15 21:25 | 25.08404 | 55.67083 | 2905 ft | 195 kts | 298° |
| 2026-04-15 21:25 | 25.09091 | 55.65838 | 2912 ft | 185 kts | 298° |
| 2026-04-15 21:25 | 25.09753 | 55.64634 | 2902 ft | 182 kts | 298° |
| 2026-04-15 21:25 | 25.10409 | 55.63440 | 2901 ft | 180 kts | 299° |
| 2026-04-15 21:26 | 25.11034 | 55.62305 | 2894 ft | 166 kts | 299° |
| 2026-04-15 21:26 | 25.11599 | 55.61280 | 2905 ft | 151 kts | 298° |
| 2026-04-15 21:26 | 25.12145 | 55.60285 | 2899 ft | 152 kts | 298° |
| 2026-04-15 21:26 | 25.12694 | 55.59286 | 2897 ft | 154 kts | 298° |
| 2026-04-15 21:27 | 25.13244 | 55.58288 | 2797 ft | 151 kts | 298° |
| 2026-04-15 21:27 | 25.13785 | 55.57306 | 2370 ft | 150 kts | 298° |
| 2026-04-15 21:27 | 25.14332 | 55.56309 | 2182 ft | 157 kts | 298° |
| 2026-04-15 21:27 | 25.14901 | 55.55276 | 2080 ft | 157 kts | 298° |
| 2026-04-15 21:28 | 25.15471 | 55.54243 | 1974 ft | 157 kts | 297° |
| 2026-04-15 21:28 | 25.16039 | 55.53211 | 1893 ft | 157 kts | 298° |
| 2026-04-15 21:28 | 25.16605 | 55.52183 | 1873 ft | 155 kts | 298° |
| 2026-04-15 21:28 | 25.17146 | 55.51206 | 1763 ft | 143 kts | 298° |
| 2026-04-15 21:29 | 25.17657 | 55.50277 | 1383 ft | 141 kts | 297° |
| 2026-04-15 21:29 | 25.18161 | 55.49359 | 1135 ft | 142 kts | 298° |
| 2026-04-15 21:29 | 25.18688 | 55.48401 | 1031 ft | 149 kts | 297° |
| 2026-04-15 21:29 | 25.19229 | 55.47422 | 941 ft | 150 kts | 297° |
| 2026-04-15 21:30 | 25.19765 | 55.46448 | 877 ft | 145 kts | 298° |
| 2026-04-15 21:30 | 25.20280 | 55.45477 | 833 ft | 147 kts | 297° |
| 2026-04-15 21:30 | 25.20794 | 55.44515 | 768 ft | 142 kts | 298° |
| 2026-04-15 21:30 | 25.21283 | 55.43616 | 653 ft | 133 kts | 298° |
| 2026-04-15 21:31 | 25.22249 | 55.41870 | 431 ft | 130 kts | 297° |
| 2026-04-15 21:31 | 25.22722 | 55.41008 | 293 ft | 132 kts | 299° |
| 2026-04-15 21:32 | 25.23708 | 55.39277 | 41 ft | 132 kts | 298° |
| 2026-04-15 21:32 | 25.24087 | 55.38565 | 28 ft | 71 kts | 302° |
| 2026-04-15 21:32 | 25.24331 | 55.38136 | 28 ft | 68 kts | 303° |
| 2026-04-15 21:32 | 25.24579 | 55.37703 | 14 ft | 61 kts | 301° |
| 2026-04-15 21:33 | 25.24764 | 55.37327 | 13 ft | 48 kts | 287° |
| 2026-04-15 21:33 | 25.24800 | 55.36984 | 13 ft | 43 kts | 281° |
| 2026-04-15 21:33 | 25.24883 | 55.36698 | 25 ft | 37 kts | 288° |
| 2026-04-15 21:33 | 25.25010 | 55.36444 | 23 ft | 39 kts | 303° |
| 2026-04-15 21:34 | 25.25159 | 55.36175 | 17 ft | 42 kts | 301° |
| 2026-04-15 21:34 | 25.25315 | 55.35891 | 15 ft | 44 kts | 302° |
| 2026-04-15 21:34 | 25.25462 | 55.35599 | 11 ft | 39 kts | 282° |
| 2026-04-15 21:34 | 25.25488 | 55.35408 | 13 ft | 1 kts | 297° |
| 2026-04-15 21:35 | 25.25479 | 55.35386 | 13 ft | 6 kts | 229° |
| 2026-04-15 21:35 | 25.25418 | 55.35341 | 15 ft | 12 kts | 213° |
| 2026-04-15 21:35 | 25.25400 | 55.35328 | 13 ft | 0 kts | 212° |